sensor_id;sensor_type;location;lat;lon;timestamp;P1;durP1;ratioP1;P2;durP2;ratioP2
7211;SDS011;3647;48.792;9.802;2023-04-22T06:14:07;9.10;;;7.03;;
7211;SDS011;3647;48.792;9.802;2023-04-22T06:16:34;8.67;;;6.57;;
7211;SDS011;3647;48.792;9.802;2023-04-22T06:19:01;8.13;;;6.83;;
7211;SDS011;3647;48.792;9.802;2023-04-22T06:21:28;7.57;;;6.77;;
7211;SDS011;3647;48.792;9.802;2023-04-22T06:23:56;11.23;;;6.43;;
7211;SDS011;3647;48.792;9.802;2023-04-22T06:26:23;6.73;;;6.03;;
7211;SDS011;3647;48.792;9.802;2023-04-22T06:28:50;11.00;;;7.27;;
7211;SDS011;3647;48.792;9.802;2023-04-22T06:31:19;8.73;;;6.07;;
7211;SDS011;3647;48.792;9.802;2023-04-22T06:33:45;6.80;;;6.10;;
7211;SDS011;3647;48.792;9.802;2023-04-22T06:36:12;7.30;;;6.37;;
7211;SDS011;3647;48.792;9.802;2023-04-22T06:38:39;7.67;;;6.70;;
7211;SDS011;3647;48.792;9.802;2023-04-22T06:41:06;8.13;;;6.53;;
7211;SDS011;3647;48.792;9.802;2023-04-22T06:43:32;8.30;;;6.87;;
7211;SDS011;3647;48.792;9.802;2023-04-22T06:45:59;9.93;;;6.67;;
7211;SDS011;3647;48.792;9.802;2023-04-22T06:48:27;8.10;;;6.53;;
7211;SDS011;3647;48.792;9.802;2023-04-22T06:50:54;9.00;;;6.33;;
7211;SDS011;3647;48.792;9.802;2023-04-22T06:53:21;6.83;;;6.10;;
7211;SDS011;3647;48.792;9.802;2023-04-22T06:55:48;9.30;;;6.27;;
7211;SDS011;3647;48.792;9.802;2023-04-22T06:58:15;7.27;;;5.70;;
7211;SDS011;3647;48.792;9.802;2023-04-22T07:00:42;7.23;;;5.77;;
7211;SDS011;3647;48.792;9.802;2023-04-22T07:03:08;8.33;;;5.93;;
7211;SDS011;3647;48.792;9.802;2023-04-22T07:05:36;6.70;;;6.07;;
7211;SDS011;3647;48.792;9.802;2023-04-22T07:08:03;8.70;;;5.87;;
7211;SDS011;3647;48.792;9.802;2023-04-22T07:10:30;6.73;;;5.17;;
7211;SDS011;3647;48.792;9.802;2023-04-22T07:12:57;7.03;;;5.47;;
7211;SDS011;3647;48.792;9.802;2023-04-22T07:15:24;5.10;;;4.47;;
7211;SDS011;3647;48.792;9.802;2023-04-22T07:17:50;8.10;;;4.93;;
7211;SDS011;3647;48.792;9.802;2023-04-22T07:20:17;6.27;;;4.90;;
7211;SDS011;3647;48.792;9.802;2023-04-22T07:22:45;5.40;;;4.90;;
7211;SDS011;3647;48.792;9.802;2023-04-22T07:25:12;8.18;;;5.45;;
7211;SDS011;3647;48.792;9.802;2023-04-22T07:27:39;9.57;;;5.43;;
7211;SDS011;3647;48.792;9.802;2023-04-22T07:30:06;6.55;;;4.90;;
7211;SDS011;3647;48.792;9.802;2023-04-22T07:32:33;7.03;;;5.40;;
7211;SDS011;3647;48.792;9.802;2023-04-22T07:35:00;6.63;;;5.35;;
7211;SDS011;3647;48.792;9.802;2023-04-22T07:37:27;5.85;;;3.88;;
7211;SDS011;3647;48.792;9.802;2023-04-22T07:39:55;5.57;;;4.03;;
7211;SDS011;3647;48.792;9.802;2023-04-22T07:42:22;4.15;;;3.60;;
7211;SDS011;3647;48.792;9.802;2023-04-22T07:44:49;17.17;;;3.83;;
7211;SDS011;3647;48.792;9.802;2023-04-22T07:47:15;4.80;;;4.20;;
7211;SDS011;3647;48.792;9.802;2023-04-22T07:49:42;5.90;;;4.20;;
7211;SDS011;3647;48.792;9.802;2023-04-22T07:52:09;3.45;;;3.15;;
7211;SDS011;3647;48.792;9.802;2023-04-22T07:54:36;4.25;;;3.35;;
7211;SDS011;3647;48.792;9.802;2023-04-22T07:57:04;4.32;;;2.85;;
7211;SDS011;3647;48.792;9.802;2023-04-22T07:59:31;4.00;;;3.45;;
7211;SDS011;3647;48.792;9.802;2023-04-22T08:01:57;5.43;;;4.53;;
7211;SDS011;3647;48.792;9.802;2023-04-22T08:04:24;3.10;;;2.80;;
7211;SDS011;3647;48.792;9.802;2023-04-22T08:06:51;4.95;;;3.38;;
7211;SDS011;3647;48.792;9.802;2023-04-22T08:09:18;3.88;;;2.30;;
7211;SDS011;3647;48.792;9.802;2023-04-22T08:11:45;3.15;;;2.10;;
7211;SDS011;3647;48.792;9.802;2023-04-22T08:14:13;2.42;;;2.08;;
7211;SDS011;3647;48.792;9.802;2023-04-22T08:16:40;2.80;;;2.30;;
7211;SDS011;3647;48.792;9.802;2023-04-22T08:19:07;2.67;;;2.17;;
7211;SDS011;3647;48.792;9.802;2023-04-22T08:21:34;3.67;;;2.58;;
7211;SDS011;3647;48.792;9.802;2023-04-22T08:24:02;2.40;;;2.20;;
7211;SDS011;3647;48.792;9.802;2023-04-22T08:26:29;3.80;;;2.38;;
7211;SDS011;3647;48.792;9.802;2023-04-22T08:28:56;2.35;;;2.03;;
7211;SDS011;3647;48.792;9.802;2023-04-22T08:31:24;2.30;;;2.10;;
7211;SDS011;3647;48.792;9.802;2023-04-22T08:33:51;1.80;;;1.70;;
7211;SDS011;3647;48.792;9.802;2023-04-22T08:36:18;3.85;;;2.20;;
7211;SDS011;3647;48.792;9.802;2023-04-22T08:38:46;4.45;;;1.77;;
7211;SDS011;3647;48.792;9.802;2023-04-22T08:41:13;2.42;;;1.65;;
7211;SDS011;3647;48.792;9.802;2023-04-22T08:43:42;2.40;;;1.80;;
7211;SDS011;3647;48.792;9.802;2023-04-22T08:46:10;3.17;;;2.00;;
7211;SDS011;3647;48.792;9.802;2023-04-22T08:48:40;2.42;;;1.70;;
7211;SDS011;3647;48.792;9.802;2023-04-22T08:51:07;2.28;;;1.50;;
7211;SDS011;3647;48.792;9.802;2023-04-22T08:53:34;2.08;;;1.73;;
7211;SDS011;3647;48.792;9.802;2023-04-22T08:56:01;2.47;;;1.40;;
7211;SDS011;3647;48.792;9.802;2023-04-22T08:58:28;1.50;;;1.40;;
7211;SDS011;3647;48.792;9.802;2023-04-22T09:00:55;1.48;;;1.38;;
7211;SDS011;3647;48.792;9.802;2023-04-22T09:03:22;1.60;;;1.50;;
7211;SDS011;3647;48.792;9.802;2023-04-22T09:05:51;1.40;;;1.23;;
7211;SDS011;3647;48.792;9.802;2023-04-22T09:08:19;1.50;;;1.40;;
7211;SDS011;3647;48.792;9.802;2023-04-22T09:10:46;1.67;;;1.58;;
7211;SDS011;3647;48.792;9.802;2023-04-22T09:13:13;1.63;;;1.50;;
7211;SDS011;3647;48.792;9.802;2023-04-22T09:15:42;2.38;;;1.77;;
7211;SDS011;3647;48.792;9.802;2023-04-22T09:18:08;3.30;;;1.33;;
7211;SDS011;3647;48.792;9.802;2023-04-22T09:20:35;1.30;;;1.20;;
7211;SDS011;3647;48.792;9.802;2023-04-22T09:23:08;1.45;;;1.35;;
7211;SDS011;3647;48.792;9.802;2023-04-22T09:25:37;1.45;;;1.35;;
7211;SDS011;3647;48.792;9.802;2023-04-22T09:28:06;1.50;;;1.40;;
7211;SDS011;3647;48.792;9.802;2023-04-22T09:30:37;1.60;;;1.50;;
7211;SDS011;3647;48.792;9.802;2023-04-22T09:33:04;1.60;;;1.50;;
7211;SDS011;3647;48.792;9.802;2023-04-22T09:35:32;3.13;;;1.50;;
7211;SDS011;3647;48.792;9.802;2023-04-22T09:38:01;3.67;;;1.40;;
7211;SDS011;3647;48.792;9.802;2023-04-22T09:40:31;2.38;;;1.50;;
7211;SDS011;3647;48.792;9.802;2023-04-22T09:42:59;1.85;;;1.38;;
7211;SDS011;3647;48.792;9.802;2023-04-22T09:45:28;1.45;;;1.33;;
7211;SDS011;3647;48.792;9.802;2023-04-22T09:47:56;1.38;;;1.27;;
7211;SDS011;3647;48.792;9.802;2023-04-22T09:50:26;1.65;;;1.55;;
7211;SDS011;3647;48.792;9.802;2023-04-22T09:52:54;1.77;;;1.55;;
7211;SDS011;3647;48.792;9.802;2023-04-22T09:55:23;1.83;;;1.25;;
7211;SDS011;3647;48.792;9.802;2023-04-22T09:57:53;1.70;;;1.60;;
7211;SDS011;3647;48.792;9.802;2023-04-22T10:00:22;1.40;;;1.30;;
7211;SDS011;3647;48.792;9.802;2023-04-22T10:02:50;2.78;;;1.67;;
7211;SDS011;3647;48.792;9.802;2023-04-22T10:05:16;1.98;;;1.77;;
7211;SDS011;3647;48.792;9.802;2023-04-22T10:07:43;2.35;;;1.30;;
7211;SDS011;3647;48.792;9.802;2023-04-22T10:10:10;3.17;;;1.40;;
7211;SDS011;3647;48.792;9.802;2023-04-22T10:12:37;1.65;;;1.55;;
7211;SDS011;3647;48.792;9.802;2023-04-22T10:15:06;1.50;;;1.40;;
7211;SDS011;3647;48.792;9.802;2023-04-22T10:17:35;2.10;;;1.60;;
7211;SDS011;3647;48.792;9.802;2023-04-22T10:20:05;2.15;;;1.20;;
7211;SDS011;3647;48.792;9.802;2023-04-22T10:22:38;2.60;;;1.50;;
7211;SDS011;3647;48.792;9.802;2023-04-22T10:25:10;3.00;;;1.58;;
7211;SDS011;3647;48.792;9.802;2023-04-22T10:27:38;1.50;;;1.40;;
7211;SDS011;3647;48.792;9.802;2023-04-22T10:30:08;3.60;;;1.40;;
7211;SDS011;3647;48.792;9.802;2023-04-22T10:32:36;2.13;;;1.92;;
7211;SDS011;3647;48.792;9.802;2023-04-22T10:35:07;2.85;;;1.42;;
7211;SDS011;3647;48.792;9.802;2023-04-22T10:37:36;2.88;;;1.73;;
7211;SDS011;3647;48.792;9.802;2023-04-22T10:40:07;2.85;;;1.50;;
7211;SDS011;3647;48.792;9.802;2023-04-22T10:42:37;1.90;;;1.70;;
7211;SDS011;3647;48.792;9.802;2023-04-22T10:45:05;2.45;;;1.45;;
7211;SDS011;3647;48.792;9.802;2023-04-22T10:47:38;3.45;;;2.15;;
7211;SDS011;3647;48.792;9.802;2023-04-22T10:50:13;1.95;;;1.65;;
7211;SDS011;3647;48.792;9.802;2023-04-22T10:52:46;1.67;;;1.50;;
7211;SDS011;3647;48.792;9.802;2023-04-22T10:55:14;2.17;;;1.40;;
7211;SDS011;3647;48.792;9.802;2023-04-22T10:57:42;2.25;;;1.63;;
7211;SDS011;3647;48.792;9.802;2023-04-22T11:03:07;2.67;;;1.30;;
7211;SDS011;3647;48.792;9.802;2023-04-22T11:05:39;1.55;;;1.45;;
7211;SDS011;3647;48.792;9.802;2023-04-22T11:08:06;1.60;;;1.50;;
7211;SDS011;3647;48.792;9.802;2023-04-22T11:10:38;1.15;;;1.05;;
7211;SDS011;3647;48.792;9.802;2023-04-22T11:13:07;2.47;;;1.60;;
7211;SDS011;3647;48.792;9.802;2023-04-22T11:15:37;1.10;;;1.10;;
7211;SDS011;3647;48.792;9.802;2023-04-22T11:18:07;1.50;;;1.38;;
7211;SDS011;3647;48.792;9.802;2023-04-22T11:20:39;1.23;;;1.10;;
7211;SDS011;3647;48.792;9.802;2023-04-22T11:23:06;1.67;;;1.40;;
7211;SDS011;3647;48.792;9.802;2023-04-22T11:25:32;1.40;;;1.30;;
7211;SDS011;3647;48.792;9.802;2023-04-22T11:27:59;1.40;;;1.30;;
7211;SDS011;3647;48.792;9.802;2023-04-22T11:30:27;3.00;;;1.40;;
7211;SDS011;3647;48.792;9.802;2023-04-22T11:32:57;2.15;;;1.10;;
7211;SDS011;3647;48.792;9.802;2023-04-22T11:35:26;3.45;;;1.20;;
7211;SDS011;3647;48.792;9.802;2023-04-22T11:37:55;1.92;;;1.30;;
7211;SDS011;3647;48.792;9.802;2023-04-22T11:40:24;1.05;;;1.05;;
7211;SDS011;3647;48.792;9.802;2023-04-22T11:42:53;2.97;;;1.70;;
7211;SDS011;3647;48.792;9.802;2023-04-22T11:45:20;2.45;;;1.50;;
7211;SDS011;3647;48.792;9.802;2023-04-22T11:47:48;1.70;;;1.60;;
7211;SDS011;3647;48.792;9.802;2023-04-22T11:50:17;1.52;;;1.40;;
7211;SDS011;3647;48.792;9.802;2023-04-22T11:52:48;1.90;;;1.27;;
7211;SDS011;3647;48.792;9.802;2023-04-22T11:55:16;2.40;;;1.23;;
7211;SDS011;3647;48.792;9.802;2023-04-22T11:57:50;1.77;;;1.33;;
7211;SDS011;3647;48.792;9.802;2023-04-22T12:00:22;4.47;;;1.60;;
7211;SDS011;3647;48.792;9.802;2023-04-22T12:02:56;1.23;;;1.13;;
7211;SDS011;3647;48.792;9.802;2023-04-22T12:05:36;2.15;;;1.98;;
7211;SDS011;3647;48.792;9.802;2023-04-22T12:08:07;1.35;;;1.10;;
7211;SDS011;3647;48.792;9.802;2023-04-22T12:10:39;1.23;;;1.10;;
7211;SDS011;3647;48.792;9.802;2023-04-22T12:13:07;1.35;;;1.25;;
7211;SDS011;3647;48.792;9.802;2023-04-22T12:15:38;2.50;;;1.52;;
7211;SDS011;3647;48.792;9.802;2023-04-22T12:18:06;1.40;;;1.23;;
7211;SDS011;3647;48.792;9.802;2023-04-22T12:20:33;2.33;;;1.45;;
7211;SDS011;3647;48.792;9.802;2023-04-22T12:23:02;1.63;;;1.52;;
7211;SDS011;3647;48.792;9.802;2023-04-22T12:25:29;1.40;;;1.30;;
7211;SDS011;3647;48.792;9.802;2023-04-22T12:27:57;1.40;;;1.25;;
7211;SDS011;3647;48.792;9.802;2023-04-22T12:30:24;1.77;;;1.10;;
7211;SDS011;3647;48.792;9.802;2023-04-22T12:32:51;1.25;;;1.13;;
7211;SDS011;3647;48.792;9.802;2023-04-22T12:35:18;1.20;;;1.15;;
7211;SDS011;3647;48.792;9.802;2023-04-22T12:37:46;1.38;;;1.20;;
7211;SDS011;3647;48.792;9.802;2023-04-22T12:40:13;1.15;;;1.05;;
7211;SDS011;3647;48.792;9.802;2023-04-22T12:42:40;3.03;;;1.55;;
7211;SDS011;3647;48.792;9.802;2023-04-22T12:45:07;3.08;;;1.25;;
7211;SDS011;3647;48.792;9.802;2023-04-22T12:47:34;1.65;;;1.20;;
7211;SDS011;3647;48.792;9.802;2023-04-22T12:50:01;1.55;;;1.10;;
7211;SDS011;3647;48.792;9.802;2023-04-22T12:52:30;1.55;;;1.45;;
7211;SDS011;3647;48.792;9.802;2023-04-22T12:54:59;1.60;;;1.30;;
7211;SDS011;3647;48.792;9.802;2023-04-22T12:57:26;1.45;;;1.35;;
7211;SDS011;3647;48.792;9.802;2023-04-22T12:59:53;1.20;;;1.10;;
7211;SDS011;3647;48.792;9.802;2023-04-22T13:02:20;1.52;;;1.42;;
7211;SDS011;3647;48.792;9.802;2023-04-22T13:04:46;1.20;;;1.10;;
7211;SDS011;3647;48.792;9.802;2023-04-22T13:07:13;2.10;;;1.50;;
7211;SDS011;3647;48.792;9.802;2023-04-22T13:09:41;2.03;;;1.40;;
7211;SDS011;3647;48.792;9.802;2023-04-22T13:12:10;1.52;;;1.20;;
7211;SDS011;3647;48.792;9.802;2023-04-22T13:14:36;1.48;;;1.35;;
7211;SDS011;3647;48.792;9.802;2023-04-22T13:17:04;2.25;;;1.20;;
7211;SDS011;3647;48.792;9.802;2023-04-22T13:19:31;1.30;;;1.20;;
7211;SDS011;3647;48.792;9.802;2023-04-22T13:21:59;1.30;;;1.20;;
7211;SDS011;3647;48.792;9.802;2023-04-22T13:24:26;1.67;;;1.30;;
7211;SDS011;3647;48.792;9.802;2023-04-22T13:26:53;3.95;;;1.63;;
7211;SDS011;3647;48.792;9.802;2023-04-22T13:29:21;1.48;;;1.20;;
7211;SDS011;3647;48.792;9.802;2023-04-22T13:31:48;1.20;;;1.10;;
7211;SDS011;3647;48.792;9.802;2023-04-22T13:34:15;1.38;;;1.27;;
7211;SDS011;3647;48.792;9.802;2023-04-22T13:36:42;1.50;;;1.40;;
7211;SDS011;3647;48.792;9.802;2023-04-22T13:39:08;2.90;;;1.25;;
7211;SDS011;3647;48.792;9.802;2023-04-22T13:41:35;1.63;;;1.48;;
7211;SDS011;3647;48.792;9.802;2023-04-22T13:44:02;3.58;;;1.50;;
7211;SDS011;3647;48.792;9.802;2023-04-22T13:46:30;1.70;;;1.48;;
7211;SDS011;3647;48.792;9.802;2023-04-22T13:48:57;1.77;;;1.60;;
7211;SDS011;3647;48.792;9.802;2023-04-22T13:51:24;1.63;;;1.50;;
7211;SDS011;3647;48.792;9.802;2023-04-22T13:53:51;1.63;;;1.30;;
7211;SDS011;3647;48.792;9.802;2023-04-22T13:56:17;2.15;;;1.60;;
7211;SDS011;3647;48.792;9.802;2023-04-22T13:58:44;2.33;;;1.80;;
7211;SDS011;3647;48.792;9.802;2023-04-22T14:01:11;1.83;;;1.63;;
7211;SDS011;3647;48.792;9.802;2023-04-22T14:03:39;2.13;;;1.55;;
7211;SDS011;3647;48.792;9.802;2023-04-22T14:06:06;2.40;;;1.75;;
7211;SDS011;3647;48.792;9.802;2023-04-22T14:08:33;2.83;;;1.77;;
7211;SDS011;3647;48.792;9.802;2023-04-22T14:11:00;3.25;;;1.40;;
7211;SDS011;3647;48.792;9.802;2023-04-22T14:13:27;1.77;;;1.55;;
7211;SDS011;3647;48.792;9.802;2023-04-22T14:15:54;1.92;;;1.40;;
7211;SDS011;3647;48.792;9.802;2023-04-22T14:18:21;1.50;;;1.35;;
7211;SDS011;3647;48.792;9.802;2023-04-22T14:20:50;2.33;;;1.30;;
7211;SDS011;3647;48.792;9.802;2023-04-22T14:23:17;4.78;;;1.70;;
7211;SDS011;3647;48.792;9.802;2023-04-22T14:25:46;1.58;;;1.48;;
7211;SDS011;3647;48.792;9.802;2023-04-22T14:28:13;2.22;;;1.60;;
7211;SDS011;3647;48.792;9.802;2023-04-22T14:30:41;2.25;;;1.65;;
7211;SDS011;3647;48.792;9.802;2023-04-22T14:33:08;1.55;;;1.45;;
7211;SDS011;3647;48.792;9.802;2023-04-22T14:35:35;2.38;;;2.03;;
7211;SDS011;3647;48.792;9.802;2023-04-22T14:38:05;3.05;;;1.52;;
7211;SDS011;3647;48.792;9.802;2023-04-22T14:40:33;5.63;;;1.58;;
7211;SDS011;3647;48.792;9.802;2023-04-22T14:43:01;1.70;;;1.60;;
7211;SDS011;3647;48.792;9.802;2023-04-22T14:45:29;4.32;;;1.70;;
7211;SDS011;3647;48.792;9.802;2023-04-22T14:47:56;5.38;;;1.70;;
7211;SDS011;3647;48.792;9.802;2023-04-22T14:50:23;4.38;;;1.98;;
7211;SDS011;3647;48.792;9.802;2023-04-22T14:52:51;3.50;;;1.83;;
7211;SDS011;3647;48.792;9.802;2023-04-22T14:55:20;2.55;;;2.10;;
7211;SDS011;3647;48.792;9.802;2023-04-22T14:57:47;3.25;;;1.90;;
7211;SDS011;3647;48.792;9.802;2023-04-22T15:00:15;2.55;;;1.70;;
7211;SDS011;3647;48.792;9.802;2023-04-22T15:02:42;1.60;;;1.50;;
7211;SDS011;3647;48.792;9.802;2023-04-22T15:05:09;1.45;;;1.35;;
7211;SDS011;3647;48.792;9.802;2023-04-22T15:07:36;2.10;;;1.50;;
7211;SDS011;3647;48.792;9.802;2023-04-22T15:10:03;3.90;;;1.67;;
7211;SDS011;3647;48.792;9.802;2023-04-22T15:12:32;3.67;;;1.60;;
7211;SDS011;3647;48.792;9.802;2023-04-22T15:14:59;5.40;;;2.30;;
7211;SDS011;3647;48.792;9.802;2023-04-22T15:17:25;2.38;;;1.83;;
7211;SDS011;3647;48.792;9.802;2023-04-22T15:19:54;2.83;;;1.55;;
7211;SDS011;3647;48.792;9.802;2023-04-22T15:22:21;3.25;;;1.80;;
7211;SDS011;3647;48.792;9.802;2023-04-22T15:24:49;2.05;;;1.90;;
7211;SDS011;3647;48.792;9.802;2023-04-22T15:27:15;3.08;;;2.35;;
7211;SDS011;3647;48.792;9.802;2023-04-22T15:29:45;3.22;;;1.90;;
7211;SDS011;3647;48.792;9.802;2023-04-22T15:32:11;2.80;;;2.30;;
7211;SDS011;3647;48.792;9.802;2023-04-22T15:34:38;2.70;;;2.30;;
7211;SDS011;3647;48.792;9.802;2023-04-22T15:37:05;2.25;;;2.00;;
7211;SDS011;3647;48.792;9.802;2023-04-22T15:39:32;1.80;;;1.70;;
7211;SDS011;3647;48.792;9.802;2023-04-22T15:41:59;1.60;;;1.50;;
7211;SDS011;3647;48.792;9.802;2023-04-22T15:44:26;3.55;;;2.53;;
7211;SDS011;3647;48.792;9.802;2023-04-22T15:46:55;1.52;;;1.42;;
7211;SDS011;3647;48.792;9.802;2023-04-22T15:49:23;3.38;;;2.40;;
7211;SDS011;3647;48.792;9.802;2023-04-22T15:51:50;2.22;;;1.90;;
7211;SDS011;3647;48.792;9.802;2023-04-22T15:54:17;2.15;;;1.90;;
7211;SDS011;3647;48.792;9.802;2023-04-22T15:56:44;3.40;;;1.70;;
7211;SDS011;3647;48.792;9.802;2023-04-22T15:59:11;3.70;;;2.30;;
7211;SDS011;3647;48.792;9.802;2023-04-22T16:01:37;4.45;;;2.40;;
7211;SDS011;3647;48.792;9.802;2023-04-22T16:04:06;2.88;;;2.38;;
7211;SDS011;3647;48.792;9.802;2023-04-22T16:06:33;2.50;;;2.30;;
7211;SDS011;3647;48.792;9.802;2023-04-22T16:09:00;4.07;;;2.42;;
7211;SDS011;3647;48.792;9.802;2023-04-22T16:11:27;3.63;;;2.47;;
7211;SDS011;3647;48.792;9.802;2023-04-22T16:13:54;4.78;;;2.28;;
7211;SDS011;3647;48.792;9.802;2023-04-22T16:16:21;2.45;;;2.25;;
7211;SDS011;3647;48.792;9.802;2023-04-22T16:18:49;4.18;;;2.55;;
7211;SDS011;3647;48.792;9.802;2023-04-22T16:21:17;4.25;;;2.67;;
7211;SDS011;3647;48.792;9.802;2023-04-22T16:23:44;3.15;;;2.67;;
7211;SDS011;3647;48.792;9.802;2023-04-22T16:26:12;4.82;;;2.50;;
7211;SDS011;3647;48.792;9.802;2023-04-22T16:28:39;3.65;;;2.25;;
7211;SDS011;3647;48.792;9.802;2023-04-22T16:31:06;2.83;;;2.40;;
7211;SDS011;3647;48.792;9.802;2023-04-22T16:33:35;5.35;;;2.40;;
7211;SDS011;3647;48.792;9.802;2023-04-22T16:36:02;3.90;;;2.55;;
7211;SDS011;3647;48.792;9.802;2023-04-22T16:38:30;6.18;;;3.20;;
7211;SDS011;3647;48.792;9.802;2023-04-22T16:40:57;3.80;;;2.72;;
7211;SDS011;3647;48.792;9.802;2023-04-22T16:43:24;3.53;;;2.38;;
7211;SDS011;3647;48.792;9.802;2023-04-22T16:45:51;4.45;;;2.70;;
7211;SDS011;3647;48.792;9.802;2023-04-22T16:48:17;3.67;;;2.95;;
7211;SDS011;3647;48.792;9.802;2023-04-22T16:50:44;3.75;;;2.80;;
7211;SDS011;3647;48.792;9.802;2023-04-22T16:53:11;3.35;;;2.50;;
7211;SDS011;3647;48.792;9.802;2023-04-22T16:55:39;3.85;;;2.55;;
7211;SDS011;3647;48.792;9.802;2023-04-22T16:58:07;4.30;;;2.75;;
7211;SDS011;3647;48.792;9.802;2023-04-22T17:00:34;3.38;;;3.08;;
7211;SDS011;3647;48.792;9.802;2023-04-22T17:03:01;3.13;;;2.72;;
7211;SDS011;3647;48.792;9.802;2023-04-22T17:05:28;3.33;;;2.75;;
7211;SDS011;3647;48.792;9.802;2023-04-22T17:07:55;2.40;;;2.20;;
7211;SDS011;3647;48.792;9.802;2023-04-22T17:10:22;5.13;;;2.50;;
7211;SDS011;3647;48.792;9.802;2023-04-22T17:12:53;4.47;;;2.47;;
7211;SDS011;3647;48.792;9.802;2023-04-22T17:15:20;2.95;;;2.47;;
7211;SDS011;3647;48.792;9.802;2023-04-22T17:17:47;4.70;;;2.50;;
7211;SDS011;3647;48.792;9.802;2023-04-22T17:20:14;2.67;;;2.47;;
7211;SDS011;3647;48.792;9.802;2023-04-22T17:22:41;4.10;;;2.30;;
7211;SDS011;3647;48.792;9.802;2023-04-22T17:25:07;3.85;;;2.35;;
7211;SDS011;3647;48.792;9.802;2023-04-22T17:27:34;4.13;;;2.40;;
7211;SDS011;3647;48.792;9.802;2023-04-22T17:30:03;2.55;;;2.30;;
7211;SDS011;3647;48.792;9.802;2023-04-22T17:32:30;3.28;;;2.38;;
7211;SDS011;3647;48.792;9.802;2023-04-22T17:34:57;4.32;;;2.50;;
7211;SDS011;3647;48.792;9.802;2023-04-22T17:37:24;4.70;;;3.00;;
7211;SDS011;3647;48.792;9.802;2023-04-22T17:39:51;4.15;;;2.40;;
7211;SDS011;3647;48.792;9.802;2023-04-22T17:42:20;4.32;;;2.78;;
7211;SDS011;3647;48.792;9.802;2023-04-22T17:44:47;3.38;;;2.78;;
7211;SDS011;3647;48.792;9.802;2023-04-22T17:47:15;3.72;;;3.03;;
7211;SDS011;3647;48.792;9.802;2023-04-22T17:49:42;5.20;;;3.53;;
7211;SDS011;3647;48.792;9.802;2023-04-22T17:52:09;5.32;;;3.65;;
7211;SDS011;3647;48.792;9.802;2023-04-22T17:54:36;3.42;;;3.10;;
7211;SDS011;3647;48.792;9.802;2023-04-22T17:57:03;4.03;;;3.22;;
7211;SDS011;3647;48.792;9.802;2023-04-22T17:59:29;6.20;;;3.92;;
7211;SDS011;3647;48.792;9.802;2023-04-22T18:01:56;5.63;;;3.60;;
7211;SDS011;3647;48.792;9.802;2023-04-22T18:04:24;6.88;;;3.63;;
7211;SDS011;3647;48.792;9.802;2023-04-22T18:06:51;4.13;;;3.15;;
7211;SDS011;3647;48.792;9.802;2023-04-22T18:09:18;4.43;;;2.80;;
7211;SDS011;3647;48.792;9.802;2023-04-22T18:11:45;5.03;;;3.15;;
7211;SDS011;3647;48.792;9.802;2023-04-22T18:14:12;3.17;;;2.40;;
7211;SDS011;3647;48.792;9.802;2023-04-22T18:16:38;3.35;;;2.42;;
7211;SDS011;3647;48.792;9.802;2023-04-22T18:19:05;2.55;;;2.17;;
7211;SDS011;3647;48.792;9.802;2023-04-22T18:21:33;3.28;;;2.70;;
7211;SDS011;3647;48.792;9.802;2023-04-22T18:24:01;2.92;;;2.53;;
7211;SDS011;3647;48.792;9.802;2023-04-22T18:26:31;7.95;;;2.83;;
7211;SDS011;3647;48.792;9.802;2023-04-22T18:28:58;3.38;;;2.40;;
7211;SDS011;3647;48.792;9.802;2023-04-22T18:31:25;3.22;;;2.78;;
7211;SDS011;3647;48.792;9.802;2023-04-22T18:33:52;4.07;;;2.47;;
7211;SDS011;3647;48.792;9.802;2023-04-22T18:36:19;2.60;;;2.17;;
7211;SDS011;3647;48.792;9.802;2023-04-22T18:38:47;3.00;;;2.63;;
7211;SDS011;3647;48.792;9.802;2023-04-22T18:41:14;3.95;;;2.42;;
7211;SDS011;3647;48.792;9.802;2023-04-22T18:43:41;4.13;;;2.60;;
7211;SDS011;3647;48.792;9.802;2023-04-22T18:46:08;3.08;;;2.40;;
7211;SDS011;3647;48.792;9.802;2023-04-22T18:48:34;2.80;;;2.60;;
7211;SDS011;3647;48.792;9.802;2023-04-22T18:51:01;2.30;;;2.10;;
7211;SDS011;3647;48.792;9.802;2023-04-22T18:53:28;4.82;;;2.60;;
7211;SDS011;3647;48.792;9.802;2023-04-22T18:55:56;2.50;;;2.30;;
7211;SDS011;3647;48.792;9.802;2023-04-22T18:58:23;2.78;;;2.58;;
7211;SDS011;3647;48.792;9.802;2023-04-22T19:00:51;3.47;;;2.35;;
7211;SDS011;3647;48.792;9.802;2023-04-22T19:03:18;4.13;;;2.78;;
7211;SDS011;3647;48.792;9.802;2023-04-22T19:05:45;2.97;;;2.40;;
7211;SDS011;3647;48.792;9.802;2023-04-22T19:08:12;3.45;;;2.63;;
7211;SDS011;3647;48.792;9.802;2023-04-22T19:10:39;3.72;;;2.63;;
7211;SDS011;3647;48.792;9.802;2023-04-22T19:13:07;2.78;;;2.58;;
7211;SDS011;3647;48.792;9.802;2023-04-22T19:15:34;3.35;;;2.60;;
7211;SDS011;3647;48.792;9.802;2023-04-22T19:18:01;3.55;;;2.55;;
7211;SDS011;3647;48.792;9.802;2023-04-22T19:20:29;3.38;;;2.90;;
7211;SDS011;3647;48.792;9.802;2023-04-22T19:22:55;3.03;;;2.50;;
7211;SDS011;3647;48.792;9.802;2023-04-22T19:25:22;2.70;;;2.50;;
7211;SDS011;3647;48.792;9.802;2023-04-22T19:27:49;3.53;;;2.17;;
7211;SDS011;3647;48.792;9.802;2023-04-22T19:30:17;4.32;;;2.53;;
7211;SDS011;3647;48.792;9.802;2023-04-22T19:32:45;3.97;;;2.42;;
7211;SDS011;3647;48.792;9.802;2023-04-22T19:35:12;2.50;;;2.30;;
7211;SDS011;3647;48.792;9.802;2023-04-22T19:37:40;7.00;;;2.65;;
7211;SDS011;3647;48.792;9.802;2023-04-22T19:40:07;4.05;;;2.60;;
7211;SDS011;3647;48.792;9.802;2023-04-22T19:42:34;4.20;;;2.60;;
7211;SDS011;3647;48.792;9.802;2023-04-22T19:45:01;2.95;;;2.45;;
7211;SDS011;3647;48.792;9.802;2023-04-22T19:47:30;3.60;;;2.50;;
7211;SDS011;3647;48.792;9.802;2023-04-22T19:49:57;3.25;;;2.90;;
7211;SDS011;3647;48.792;9.802;2023-04-22T19:52:24;2.67;;;2.47;;
7211;SDS011;3647;48.792;9.802;2023-04-22T19:54:52;2.88;;;2.50;;
7211;SDS011;3647;48.792;9.802;2023-04-22T19:57:22;3.10;;;2.67;;
7211;SDS011;3647;48.792;9.802;2023-04-22T19:59:51;2.95;;;2.47;;
7211;SDS011;3647;48.792;9.802;2023-04-22T20:02:19;2.88;;;2.42;;
7211;SDS011;3647;48.792;9.802;2023-04-22T20:04:48;2.63;;;2.40;;
7211;SDS011;3647;48.792;9.802;2023-04-22T20:07:15;2.47;;;2.28;;
7211;SDS011;3647;48.792;9.802;2023-04-22T20:09:43;3.15;;;2.53;;
7211;SDS011;3647;48.792;9.802;2023-04-22T20:12:11;4.78;;;2.75;;
7211;SDS011;3647;48.792;9.802;2023-04-22T20:14:38;2.90;;;2.40;;
7211;SDS011;3647;48.792;9.802;2023-04-22T20:17:05;3.17;;;2.75;;
7211;SDS011;3647;48.792;9.802;2023-04-22T20:19:33;4.90;;;2.80;;
7211;SDS011;3647;48.792;9.802;2023-04-22T20:22:01;3.05;;;2.75;;
7211;SDS011;3647;48.792;9.802;2023-04-22T20:24:30;3.40;;;2.90;;
7211;SDS011;3647;48.792;9.802;2023-04-22T20:27:03;4.18;;;3.25;;
7211;SDS011;3647;48.792;9.802;2023-04-22T20:29:30;3.78;;;2.83;;
7211;SDS011;3647;48.792;9.802;2023-04-22T20:31:58;4.03;;;2.40;;
7211;SDS011;3647;48.792;9.802;2023-04-22T20:34:28;3.75;;;2.75;;
7211;SDS011;3647;48.792;9.802;2023-04-22T20:36:55;3.95;;;3.17;;
7211;SDS011;3647;48.792;9.802;2023-04-22T20:39:24;3.13;;;2.90;;
7211;SDS011;3647;48.792;9.802;2023-04-22T20:41:52;5.88;;;2.75;;
7211;SDS011;3647;48.792;9.802;2023-04-22T20:44:20;3.42;;;2.95;;
7211;SDS011;3647;48.792;9.802;2023-04-22T20:46:47;6.40;;;3.40;;
7211;SDS011;3647;48.792;9.802;2023-04-22T20:49:14;3.50;;;3.20;;
7211;SDS011;3647;48.792;9.802;2023-04-22T20:51:40;3.63;;;3.13;;
7211;SDS011;3647;48.792;9.802;2023-04-22T20:54:07;7.47;;;3.40;;
7211;SDS011;3647;48.792;9.802;2023-04-22T20:56:36;3.53;;;3.10;;
7211;SDS011;3647;48.792;9.802;2023-04-22T20:59:03;4.15;;;3.58;;
7211;SDS011;3647;48.792;9.802;2023-04-22T21:01:29;3.28;;;3.00;;
7211;SDS011;3647;48.792;9.802;2023-04-22T21:03:56;5.10;;;2.97;;
7211;SDS011;3647;48.792;9.802;2023-04-22T21:06:24;3.22;;;2.92;;
7211;SDS011;3647;48.792;9.802;2023-04-22T21:08:54;11.73;;;8.43;;
7211;SDS011;3647;48.792;9.802;2023-04-22T21:11:21;6.72;;;4.38;;
7211;SDS011;3647;48.792;9.802;2023-04-22T21:13:50;5.97;;;4.07;;
7211;SDS011;3647;48.792;9.802;2023-04-22T21:16:18;4.82;;;4.15;;
7211;SDS011;3647;48.792;9.802;2023-04-22T21:18:48;8.02;;;3.90;;
7211;SDS011;3647;48.792;9.802;2023-04-22T21:21:19;5.40;;;4.13;;
7211;SDS011;3647;48.792;9.802;2023-04-22T21:23:51;6.15;;;4.03;;
7211;SDS011;3647;48.792;9.802;2023-04-22T21:26:20;5.35;;;3.88;;
7211;SDS011;3647;48.792;9.802;2023-04-22T21:28:50;4.13;;;3.57;;
7211;SDS011;3647;48.792;9.802;2023-04-22T21:31:18;5.73;;;3.90;;
7211;SDS011;3647;48.792;9.802;2023-04-22T21:33:45;5.63;;;4.20;;